Terminal Aerodrome Forecast
Issued by NWS

Home | Current Version | Previous Version | Text Only | Print | Product List | Glossary On
Versions: 1 2 3 4 5 6 7 8 9 10 11 12 13 14 15 16
000
FTUS44 KCRP 200200 AAA
TAFLRD
TAF AMD
KLRD 200204Z 2002/2024 11012KT P6SM VCSH SCT035 BKN080
     FM200400 13008KT P6SM SCT040 BKN100
     FM201100 15005KT P6SM SCT008 BKN100
      TEMPO 2011/2014 5SM BR BKN008
     FM201500 15009KT P6SM SCT025 BKN150
     FM202000 12012KT P6SM VCTS SCT040CB BKN150 PROB30 2020/2024 5SM
      TSRA BKN030CB=

USA.gov is the U.S. government's official web portal to all federal, state and local government web resources and services.